アダック島 の空港の天気 - METARとTAF

アダック空港 ( PADK / ADK ) - アメリカ アラスカ州アダック島
飛行場実況気象(Metar)
観測時間01/19 01:56 AKST (01/19 10:56 UTC)
風向・風速東南東 10m/s 瞬間風速14m/s
視程10km以上
天気現象
全天を覆う雲 雲底高度 820m
気温2.2℃
湿度73%
気圧1004.7hPa
METARPADK 191056Z AUTO 11020G27KT 10SM OVC027 02/M02 A2967 RMK AO2 PK WND 12030/1031 SLP047 T00221022 FZRANO
過去の天気等 Google飛行場航空写真 Wunderground天気予報

過去48時間のMETAR

飛行場予報(TAF)
データがありません